createdAt,value
2023-02-08T00:00:49.945Z,66.14
2023-02-08T00:03:11.786Z,65.80
2023-02-08T00:05:33.381Z,65.86
2023-02-08T00:07:54.835Z,66.31
2023-02-08T00:10:16.325Z,66.06
2023-02-08T00:12:37.963Z,65.83
2023-02-08T00:14:59.570Z,65.64
2023-02-08T00:17:21.032Z,66.35
2023-02-08T00:19:42.617Z,66.63
2023-02-08T00:22:04.152Z,66.77
2023-02-08T00:24:25.597Z,67.83
2023-02-08T00:26:47.052Z,67.36
2023-02-08T00:29:08.493Z,67.03
2023-02-08T00:31:30.128Z,66.67
2023-02-08T00:33:51.597Z,66.41
2023-02-08T00:36:13.137Z,66.42
2023-02-08T00:38:35.518Z,66.41
2023-02-08T00:40:57.084Z,66.49
2023-02-08T00:43:18.622Z,66.54
2023-02-08T00:45:40.120Z,65.94
2023-02-08T00:48:01.561Z,65.93
2023-02-08T00:50:22.974Z,66.04
2023-02-08T00:52:44.479Z,66.21
2023-02-08T00:55:06.531Z,65.73
2023-02-08T00:57:27.993Z,66.22
2023-02-08T00:59:49.484Z,66.13
2023-02-08T01:02:11.177Z,66.71
2023-02-08T01:04:32.629Z,66.57
2023-02-08T01:06:54.138Z,66.09
2023-02-08T01:09:15.722Z,66.49
2023-02-08T01:11:37.178Z,66.38
2023-02-08T01:13:58.661Z,66.66
2023-02-08T01:16:23.144Z,66.35
2023-02-08T01:18:47.144Z,65.98
2023-02-08T01:21:12.266Z,66.57
2023-02-08T01:23:33.729Z,66.66
2023-02-08T01:25:55.136Z,66.59
2023-02-08T01:28:16.628Z,66.71
2023-02-08T01:30:38.343Z,66.31
2023-02-08T01:33:00.201Z,66.29
2023-02-08T01:35:21.630Z,66.10
2023-02-08T01:37:43.070Z,66.38
2023-02-08T01:40:04.846Z,65.68
2023-02-08T01:42:26.324Z,65.92
2023-02-08T01:45:15.499Z,65.76
2023-02-08T01:47:36.978Z,65.67
2023-02-08T01:49:58.458Z,65.54
2023-02-08T01:52:24.775Z,65.73
2023-02-08T01:55:15.947Z,65.82
2023-02-08T01:57:37.593Z,65.94
2023-02-08T02:00:04.356Z,65.86
2023-02-08T02:02:26.457Z,66.13
2023-02-08T02:04:49.583Z,66.00
2023-02-08T02:07:12.668Z,66.13
2023-02-08T02:09:43.993Z,66.02
2023-02-08T02:12:08.442Z,65.78
2023-02-08T02:14:31.175Z,66.14
2023-02-08T02:16:52.612Z,65.97
2023-02-08T02:19:47.361Z,66.22
2023-02-08T02:22:39.698Z,66.17
2023-02-08T02:25:32.936Z,66.25
2023-02-08T02:27:57.360Z,66.03
2023-02-08T02:30:44.321Z,65.96
2023-02-08T02:33:11.765Z,65.75
2023-02-08T02:35:54.766Z,65.83
2023-02-08T02:38:37.803Z,65.81
2023-02-08T02:41:14.760Z,65.75
2023-02-08T02:43:46.571Z,66.05
2023-02-08T02:46:24.267Z,65.81
2023-02-08T02:48:53.446Z,65.88
2023-02-08T02:51:25.346Z,66.09
2023-02-08T02:54:00.171Z,66.06
2023-02-08T02:56:25.695Z,65.76
2023-02-08T02:58:47.273Z,66.15
2023-02-08T03:01:08.747Z,65.93
2023-02-08T03:03:33.315Z,65.98
2023-02-08T03:06:01.027Z,66.03
2023-02-08T03:08:50.289Z,65.92
2023-02-08T03:11:20.733Z,66.03
2023-02-08T03:13:47.986Z,66.81
2023-02-08T03:16:28.293Z,66.34
2023-02-08T03:19:01.654Z,66.56
2023-02-08T03:21:42.319Z,66.46
2023-02-08T03:24:57.102Z,66.45
2023-02-08T03:27:27.581Z,66.20
2023-02-08T03:29:59.536Z,66.66
2023-02-08T03:32:34.723Z,67.24
2023-02-08T03:35:32.941Z,67.03
2023-02-08T03:38:00.517Z,66.92
2023-02-08T03:40:32.678Z,66.75
2023-02-08T03:42:58.219Z,66.74
2023-02-08T03:45:23.989Z,66.83
2023-02-08T03:47:49.427Z,66.72
2023-02-08T03:50:14.366Z,66.52
2023-02-08T03:52:36.583Z,66.46
2023-02-08T03:55:04.277Z,66.21
2023-02-08T03:57:34.846Z,66.24
2023-02-08T04:00:09.146Z,66.09
2023-02-08T04:02:36.244Z,66.33
2023-02-08T04:05:00.571Z,66.27
2023-02-08T04:07:22.479Z,66.15
2023-02-08T04:09:44.177Z,66.04
2023-02-08T04:12:06.266Z,66.22
2023-02-08T04:14:27.736Z,66.13
2023-02-08T04:16:49.156Z,66.29
2023-02-08T04:19:10.598Z,66.38
2023-02-08T04:21:32.654Z,66.33
2023-02-08T04:23:54.098Z,66.07
2023-02-08T04:26:15.546Z,65.94
2023-02-08T04:28:37.036Z,66.10
2023-02-08T04:30:58.642Z,65.97
2023-02-08T04:33:20.107Z,65.83
2023-02-08T04:35:42.782Z,65.79
2023-02-08T04:38:04.243Z,65.91
2023-02-08T04:40:25.756Z,65.78
2023-02-08T04:42:47.207Z,65.64
2023-02-08T04:45:09.729Z,65.70
2023-02-08T04:47:31.221Z,65.65
2023-02-08T04:49:52.672Z,65.66
2023-02-08T04:52:14.091Z,66.04
2023-02-08T04:54:35.611Z,66.05
2023-02-08T04:56:57.041Z,65.90
2023-02-08T04:59:18.957Z,66.02
2023-02-08T05:01:40.428Z,65.48
2023-02-08T05:04:01.909Z,66.01
2023-02-08T05:06:23.352Z,66.29
2023-02-08T05:08:44.823Z,66.83
2023-02-08T05:11:06.355Z,67.22
2023-02-08T05:13:27.837Z,67.12
2023-02-08T05:15:49.312Z,66.74
2023-02-08T05:18:10.792Z,66.68
2023-02-08T05:20:33.728Z,66.43
2023-02-08T05:22:55.178Z,66.46
2023-02-08T05:25:18.052Z,66.52
2023-02-08T05:27:39.500Z,66.33
2023-02-08T05:30:01.000Z,66.46
2023-02-08T05:32:22.447Z,68.15
2023-02-08T05:34:43.986Z,67.29
2023-02-08T05:37:05.580Z,66.95
2023-02-08T05:39:27.032Z,66.58
2023-02-08T05:41:48.490Z,67.24
2023-02-08T05:44:10.256Z,67.21
2023-02-08T05:46:31.718Z,66.82
2023-02-08T05:48:54.144Z,66.75
2023-02-08T05:51:15.616Z,66.91
2023-02-08T05:53:37.747Z,66.73
2023-02-08T05:55:59.402Z,66.64
2023-02-08T05:58:20.905Z,66.70
2023-02-08T06:00:43.092Z,66.49
2023-02-08T06:03:04.757Z,66.46
2023-02-08T06:05:28.140Z,66.47
2023-02-08T06:07:49.555Z,66.48
2023-02-08T06:10:11.630Z,66.59
2023-02-08T06:12:33.117Z,66.30
2023-02-08T06:14:54.561Z,66.35
2023-02-08T06:17:15.985Z,66.40
2023-02-08T06:19:37.417Z,66.26
2023-02-08T06:21:58.890Z,66.12
2023-02-08T06:24:20.381Z,66.13
2023-02-08T06:26:41.906Z,66.02
2023-02-08T06:29:03.548Z,66.13
2023-02-08T06:31:25.190Z,65.78
2023-02-08T06:33:46.649Z,66.04
2023-02-08T06:36:08.466Z,66.39
2023-02-08T06:38:29.920Z,66.59
2023-02-08T06:40:51.408Z,66.33
2023-02-08T06:43:13.077Z,66.39
2023-02-08T06:45:34.727Z,66.71
2023-02-08T06:47:56.171Z,66.78
2023-02-08T06:50:17.689Z,66.53
2023-02-08T06:52:39.159Z,66.46
2023-02-08T06:55:00.614Z,66.80
2023-02-08T06:57:22.051Z,66.41
2023-02-08T06:59:43.606Z,66.25
2023-02-08T07:02:06.032Z,66.27
2023-02-08T07:04:27.526Z,66.19
2023-02-08T07:06:49.825Z,66.19
2023-02-08T07:09:11.285Z,66.01
2023-02-08T07:11:32.770Z,66.31
2023-02-08T07:13:55.200Z,66.11
2023-02-08T07:16:18.961Z,65.92
2023-02-08T07:18:40.442Z,65.96
2023-02-08T07:21:01.943Z,65.93
2023-02-08T07:23:23.854Z,65.86
2023-02-08T07:25:45.991Z,65.59
2023-02-08T07:28:07.480Z,65.67
2023-02-08T07:30:29.148Z,65.81
2023-02-08T07:32:50.675Z,65.71
2023-02-08T07:35:12.218Z,65.99
2023-02-08T07:37:33.874Z,65.86
2023-02-08T07:39:55.902Z,65.90
2023-02-08T07:42:17.474Z,65.79
2023-02-08T07:44:39.433Z,65.95
2023-02-08T07:47:02.048Z,65.67
2023-02-08T07:49:23.555Z,65.63
2023-02-08T07:51:44.993Z,65.61
2023-02-08T07:54:06.660Z,65.88
2023-02-08T07:56:28.089Z,65.64
2023-02-08T07:58:49.531Z,65.76
2023-02-08T08:01:21.910Z,66.20
2023-02-08T08:03:43.900Z,65.95
2023-02-08T08:06:05.629Z,65.88
2023-02-08T08:08:27.112Z,65.76
2023-02-08T08:10:49.516Z,65.89
2023-02-08T08:13:11.028Z,65.79
2023-02-08T08:15:32.725Z,65.93
2023-02-08T08:17:54.258Z,65.75
2023-02-08T08:20:15.867Z,65.78
2023-02-08T08:22:37.961Z,65.73
2023-02-08T08:25:00.041Z,65.77
2023-02-08T08:27:21.509Z,65.61
2023-02-08T08:29:43.007Z,65.90
2023-02-08T08:32:05.311Z,66.19
2023-02-08T08:34:30.000Z,65.92
2023-02-08T08:36:51.466Z,66.51
2023-02-08T08:39:12.965Z,66.27
2023-02-08T08:41:36.043Z,66.15
2023-02-08T08:43:57.542Z,66.19
2023-02-08T08:46:19.673Z,66.34
2023-02-08T08:48:41.151Z,66.80
2023-02-08T08:51:03.219Z,67.42
2023-02-08T08:53:25.631Z,67.04
2023-02-08T08:55:47.188Z,67.55
2023-02-08T08:58:08.607Z,67.51
2023-02-08T09:00:30.066Z,67.15
2023-02-08T09:02:51.574Z,67.22
2023-02-08T09:05:13.039Z,67.39
2023-02-08T09:07:35.364Z,67.56
2023-02-08T09:09:56.869Z,67.80
2023-02-08T09:12:18.288Z,67.45
2023-02-08T09:14:39.771Z,68.11
2023-02-08T09:17:01.253Z,67.37
2023-02-08T09:19:22.686Z,67.92
2023-02-08T09:21:44.296Z,67.61
2023-02-08T09:24:06.727Z,68.73
2023-02-08T09:26:28.880Z,68.98
2023-02-08T09:28:50.314Z,69.34
2023-02-08T09:31:24.016Z,69.02
2023-02-08T09:33:46.020Z,69.55
2023-02-08T09:36:08.599Z,70.61
2023-02-08T09:38:30.214Z,71.17
2023-02-08T09:41:18.313Z,71.17
2023-02-08T09:43:54.439Z,72.58
2023-02-08T09:46:19.292Z,69.58
2023-02-08T09:48:41.248Z,70.41
2023-02-08T09:51:11.021Z,69.67
2023-02-08T09:53:40.371Z,67.65
2023-02-08T09:56:05.890Z,66.13
2023-02-08T09:58:37.786Z,65.98
2023-02-08T10:01:00.023Z,67.23
2023-02-08T10:03:38.546Z,66.86
2023-02-08T10:06:00.624Z,65.30
2023-02-08T10:08:28.882Z,65.94
2023-02-08T10:11:19.718Z,66.39
2023-02-08T10:14:06.451Z,64.40
2023-02-08T10:17:05.140Z,63.76
2023-02-08T10:19:52.743Z,63.22
2023-02-08T10:22:36.522Z,61.70
2023-02-08T10:25:10.249Z,59.82
2023-02-08T10:27:49.784Z,59.13
2023-02-08T10:30:22.515Z,60.04
2023-02-08T10:33:09.492Z,59.79
2023-02-08T10:35:37.146Z,59.84
2023-02-08T10:37:59.078Z,59.30
2023-02-08T10:40:31.084Z,58.97
2023-02-08T10:43:09.711Z,58.67
2023-02-08T10:46:03.201Z,57.38
2023-02-08T10:49:07.540Z,57.07
2023-02-08T10:51:30.626Z,56.61
2023-02-08T10:53:53.584Z,56.22
2023-02-08T10:56:30.009Z,56.65
2023-02-08T10:58:52.241Z,55.37
2023-02-08T11:01:13.932Z,55.66
2023-02-08T11:03:38.351Z,55.49
2023-02-08T11:05:59.810Z,54.93
2023-02-08T11:08:24.432Z,54.97
2023-02-08T11:11:07.745Z,53.50
2023-02-08T11:13:41.450Z,53.27
2023-02-08T11:16:05.411Z,53.06
2023-02-08T11:18:47.217Z,52.36
2023-02-08T11:21:22.534Z,53.53
2023-02-08T11:23:51.452Z,52.56
2023-02-08T11:26:18.858Z,52.89
2023-02-08T11:28:40.626Z,52.96
2023-02-08T11:31:14.902Z,52.56
2023-02-08T11:33:36.876Z,49.91
2023-02-08T11:36:07.689Z,50.46
2023-02-08T11:38:30.465Z,50.18
2023-02-08T11:40:53.507Z,49.56
2023-02-08T11:43:23.208Z,49.23
2023-02-08T11:45:46.457Z,49.04
2023-02-08T11:48:22.554Z,48.13
2023-02-08T11:50:44.050Z,48.47
2023-02-08T11:53:21.194Z,48.40
2023-02-08T11:55:43.568Z,47.93
2023-02-08T11:58:25.524Z,48.01
2023-02-08T12:01:04.251Z,49.02
2023-02-08T12:03:33.661Z,48.71
2023-02-08T12:06:20.271Z,47.21
2023-02-08T12:08:59.856Z,47.65
2023-02-08T12:11:44.703Z,45.90
2023-02-08T12:14:40.247Z,46.95
2023-02-08T12:17:24.932Z,47.75
2023-02-08T12:19:46.301Z,47.20
2023-02-08T12:22:27.528Z,47.49
2023-02-08T12:25:27.269Z,46.97
2023-02-08T12:28:02.492Z,46.62
2023-02-08T12:30:34.079Z,47.47
2023-02-08T12:33:34.394Z,46.94
2023-02-08T12:36:31.663Z,46.38
2023-02-08T12:39:26.159Z,47.70
2023-02-08T12:41:47.812Z,46.48
2023-02-08T12:44:29.424Z,47.11
2023-02-08T12:47:01.048Z,46.48
2023-02-08T12:49:33.411Z,46.26
2023-02-08T12:52:10.426Z,45.78
2023-02-08T12:54:40.552Z,44.42
2023-02-08T12:57:03.622Z,45.89
2023-02-08T12:59:33.125Z,45.61
2023-02-08T13:02:03.689Z,45.97
2023-02-08T13:04:34.142Z,45.63
2023-02-08T13:07:13.210Z,46.04
2023-02-08T13:09:48.546Z,46.47
2023-02-08T13:12:21.753Z,45.39
2023-02-08T13:14:49.401Z,44.23
2023-02-08T13:17:13.607Z,44.67
2023-02-08T13:20:02.698Z,45.62
2023-02-08T13:22:24.899Z,44.63
2023-02-08T13:24:50.363Z,44.02
2023-02-08T13:27:19.134Z,43.86
2023-02-08T13:29:40.976Z,44.06
2023-02-08T13:32:08.253Z,44.48
2023-02-08T13:34:42.498Z,45.19
2023-02-08T13:37:24.623Z,44.94
2023-02-08T13:39:48.394Z,44.19
2023-02-08T13:42:33.089Z,44.42
2023-02-08T13:44:56.961Z,42.93
2023-02-08T13:47:31.715Z,43.60
2023-02-08T13:50:00.884Z,44.74
2023-02-08T13:52:48.887Z,44.27
2023-02-08T13:55:29.009Z,44.34
2023-02-08T13:57:55.982Z,44.59
2023-02-08T14:00:27.959Z,43.32
2023-02-08T14:03:15.688Z,43.61
2023-02-08T14:05:51.518Z,42.47
2023-02-08T14:08:31.373Z,43.17
2023-02-08T14:11:28.684Z,43.43
2023-02-08T14:13:59.774Z,42.22
2023-02-08T14:16:27.433Z,43.04
2023-02-08T14:19:04.627Z,44.22
2023-02-08T14:21:40.623Z,44.31
2023-02-08T14:24:09.176Z,43.65
2023-02-08T14:26:31.324Z,42.73
2023-02-08T14:28:59.565Z,43.62
2023-02-08T14:31:22.811Z,43.52
2023-02-08T14:33:53.744Z,42.70
2023-02-08T14:36:31.968Z,43.34
2023-02-08T14:39:08.603Z,43.20
2023-02-08T14:41:51.096Z,43.58
2023-02-08T14:44:37.468Z,43.72
2023-02-08T14:46:58.989Z,43.33
2023-02-08T14:49:20.798Z,42.29
2023-02-08T14:51:49.837Z,42.80
2023-02-08T14:54:21.480Z,43.07
2023-02-08T14:56:54.827Z,42.43
2023-02-08T14:59:20.883Z,42.91
2023-02-08T15:01:45.212Z,42.58
2023-02-08T15:04:07.450Z,43.13
2023-02-08T15:06:38.014Z,43.51
2023-02-08T15:09:00.023Z,43.45
2023-02-08T15:11:25.071Z,42.92
2023-02-08T15:13:50.134Z,43.59
2023-02-08T15:16:12.569Z,43.14
2023-02-08T15:18:34.099Z,42.50
2023-02-08T15:21:05.394Z,42.84
2023-02-08T15:23:26.863Z,43.08
2023-02-08T15:26:22.284Z,42.87
2023-02-08T15:28:44.675Z,42.76
2023-02-08T15:31:14.415Z,42.56
2023-02-08T15:33:40.266Z,42.64
2023-02-08T15:36:07.893Z,42.66
2023-02-08T15:38:30.187Z,43.30
2023-02-08T15:41:02.209Z,43.21
2023-02-08T15:43:23.631Z,43.92
2023-02-08T15:45:56.184Z,43.55
2023-02-08T15:48:17.660Z,43.85
2023-02-08T15:50:39.265Z,44.57
2023-02-08T15:53:04.491Z,45.86
2023-02-08T15:55:31.230Z,45.21
2023-02-08T15:57:55.354Z,46.17
2023-02-08T16:00:24.741Z,45.88
2023-02-08T16:02:54.702Z,45.99
2023-02-08T16:05:24.051Z,46.01
2023-02-08T16:07:46.858Z,46.56
2023-02-08T16:10:21.207Z,46.88
2023-02-08T16:12:44.719Z,46.49
2023-02-08T16:15:06.486Z,47.46
2023-02-08T16:17:46.451Z,47.25
2023-02-08T16:20:35.492Z,47.37
2023-02-08T16:23:00.120Z,48.06
2023-02-08T16:25:24.342Z,48.54
2023-02-08T16:27:48.952Z,48.80
2023-02-08T16:30:21.775Z,48.84
2023-02-08T16:32:44.471Z,48.91
2023-02-08T16:35:23.283Z,48.95
2023-02-08T16:37:44.838Z,49.24
2023-02-08T16:40:48.902Z,49.38
2023-02-08T16:43:29.787Z,50.70
2023-02-08T16:46:11.221Z,50.99
2023-02-08T16:48:35.934Z,50.76
2023-02-08T16:50:57.417Z,50.84
2023-02-08T16:53:18.843Z,51.08
2023-02-08T16:55:40.333Z,51.98
2023-02-08T16:58:01.871Z,51.76
2023-02-08T17:00:28.450Z,51.58
2023-02-08T17:02:50.549Z,51.97
2023-02-08T17:05:12.315Z,52.09
2023-02-08T17:07:33.795Z,52.03
2023-02-08T17:09:56.346Z,52.35
2023-02-08T17:12:22.757Z,52.51
2023-02-08T17:14:44.469Z,52.62
2023-02-08T17:17:05.923Z,52.94
2023-02-08T17:19:27.549Z,54.26
2023-02-08T17:21:49.022Z,54.18
2023-02-08T17:24:10.477Z,54.15
2023-02-08T17:26:39.719Z,54.28
2023-02-08T17:29:01.214Z,54.21
2023-02-08T17:31:23.615Z,54.58
2023-02-08T17:33:45.352Z,55.69
2023-02-08T17:36:09.039Z,55.29
2023-02-08T17:38:30.589Z,55.37
2023-02-08T17:40:52.049Z,55.70
2023-02-08T17:43:13.531Z,55.39
2023-02-08T17:45:39.337Z,55.34
2023-02-08T17:48:01.019Z,55.17
2023-02-08T17:50:23.253Z,55.25
2023-02-08T17:52:45.912Z,55.38
2023-02-08T17:55:09.593Z,55.11
2023-02-08T17:57:32.698Z,55.49
2023-02-08T17:59:54.111Z,55.45
2023-02-08T18:02:15.562Z,55.90
2023-02-08T18:04:37.318Z,56.54
2023-02-08T18:06:58.763Z,56.46
2023-02-08T18:09:20.301Z,56.84
2023-02-08T18:11:42.472Z,56.58
2023-02-08T18:14:03.901Z,56.58
2023-02-08T18:16:27.247Z,56.97
2023-02-08T18:18:48.864Z,56.52
2023-02-08T18:21:17.705Z,56.71
2023-02-08T18:23:39.603Z,56.66
2023-02-08T18:26:06.699Z,56.61
2023-02-08T18:28:28.180Z,56.27
2023-02-08T18:30:49.865Z,56.78
2023-02-08T18:33:12.451Z,56.89
2023-02-08T18:35:33.859Z,57.06
2023-02-08T18:37:55.282Z,57.36
2023-02-08T18:40:17.311Z,57.33
2023-02-08T18:42:38.751Z,57.65
2023-02-08T18:45:00.204Z,57.22
2023-02-08T18:47:21.874Z,57.77
2023-02-08T18:49:43.391Z,57.92
2023-02-08T18:52:04.872Z,58.92
2023-02-08T18:54:26.329Z,58.67
2023-02-08T18:56:51.834Z,58.89
2023-02-08T18:59:13.279Z,58.52
2023-02-08T19:01:35.013Z,58.92
2023-02-08T19:03:58.185Z,58.86
2023-02-08T19:06:24.386Z,58.84
2023-02-08T19:08:45.943Z,58.38
2023-02-08T19:11:26.690Z,58.61
2023-02-08T19:13:49.114Z,59.03
2023-02-08T19:16:10.997Z,59.51
2023-02-08T19:18:32.624Z,59.10
2023-02-08T19:20:54.032Z,58.56
2023-02-08T19:23:15.491Z,61.69
2023-02-08T19:25:38.685Z,61.96
2023-02-08T19:28:00.229Z,61.33
2023-02-08T19:30:22.205Z,61.67
2023-02-08T19:32:43.752Z,62.51
2023-02-08T19:35:05.301Z,61.25
2023-02-08T19:37:26.803Z,61.47
2023-02-08T19:39:48.330Z,61.59
2023-02-08T19:42:09.886Z,60.28
2023-02-08T19:44:31.423Z,59.95
2023-02-08T19:46:54.256Z,60.15
2023-02-08T19:49:16.280Z,60.38
2023-02-08T19:51:37.991Z,60.00
2023-02-08T19:54:00.969Z,59.48
2023-02-08T19:56:22.545Z,59.62
2023-02-08T19:58:44.470Z,58.84
2023-02-08T20:01:11.570Z,59.04
2023-02-08T20:03:33.087Z,58.37
2023-02-08T20:05:55.214Z,57.78
2023-02-08T20:08:17.560Z,57.76
2023-02-08T20:10:44.733Z,58.35
2023-02-08T20:13:06.701Z,57.68
2023-02-08T20:15:28.125Z,57.77
2023-02-08T20:17:49.591Z,57.59
2023-02-08T20:20:11.360Z,57.36
2023-02-08T20:22:32.853Z,57.72
2023-02-08T20:24:54.333Z,56.58
2023-02-08T20:27:15.857Z,56.96
2023-02-08T20:29:37.296Z,56.40
2023-02-08T20:31:59.542Z,56.74
2023-02-08T20:34:21.345Z,56.34
2023-02-08T20:36:49.709Z,56.36
2023-02-08T20:39:16.466Z,57.19
2023-02-08T20:41:38.538Z,57.65
2023-02-08T20:44:00.589Z,57.81
2023-02-08T20:46:24.870Z,57.60
2023-02-08T20:48:46.364Z,58.00
2023-02-08T20:51:10.891Z,57.14
2023-02-08T20:53:33.334Z,57.41
2023-02-08T20:55:54.806Z,57.92
2023-02-08T20:58:16.255Z,57.76
2023-02-08T21:00:42.716Z,57.44
2023-02-08T21:03:04.994Z,57.53
2023-02-08T21:05:26.426Z,56.80
2023-02-08T21:07:47.885Z,56.55
2023-02-08T21:10:09.460Z,56.98
2023-02-08T21:12:33.083Z,56.59
2023-02-08T21:14:54.789Z,56.75
2023-02-08T21:17:16.257Z,56.80
2023-02-08T21:19:39.574Z,57.39
2023-02-08T21:22:02.370Z,57.23
2023-02-08T21:24:24.362Z,57.01
2023-02-08T21:26:46.299Z,58.16
2023-02-08T21:29:07.829Z,58.50
2023-02-08T21:31:29.440Z,58.32
2023-02-08T21:33:51.843Z,58.35
2023-02-08T21:36:16.189Z,58.46
2023-02-08T21:38:38.506Z,58.98
2023-02-08T21:41:06.197Z,59.24
2023-02-08T21:43:27.652Z,59.94
2023-02-08T21:45:49.166Z,59.67
2023-02-08T21:48:10.624Z,59.36
2023-02-08T21:50:50.750Z,59.60
2023-02-08T21:53:32.019Z,59.32
2023-02-08T21:55:53.434Z,59.81
2023-02-08T21:58:14.887Z,60.05
2023-02-08T22:00:36.329Z,59.96
2023-02-08T22:02:57.817Z,59.25
2023-02-08T22:05:37.866Z,60.11
2023-02-08T22:07:59.584Z,62.73
2023-02-08T22:10:24.470Z,62.72
2023-02-08T22:12:47.274Z,60.92
2023-02-08T22:15:11.614Z,61.89
2023-02-08T22:17:33.055Z,60.78
2023-02-08T22:19:54.466Z,60.71
2023-02-08T22:22:15.947Z,60.58
2023-02-08T22:24:37.408Z,60.21
2023-02-08T22:26:58.869Z,59.99
2023-02-08T22:29:20.338Z,60.01
2023-02-08T22:31:41.875Z,60.20
2023-02-08T22:34:03.685Z,60.40
2023-02-08T22:36:25.138Z,59.85
2023-02-08T22:38:46.740Z,60.53
2023-02-08T22:41:13.323Z,61.20
2023-02-08T22:43:34.776Z,60.74
2023-02-08T22:45:59.852Z,61.45
2023-02-08T22:48:21.399Z,61.59
2023-02-08T22:50:43.092Z,61.61
2023-02-08T22:53:04.643Z,61.75
2023-02-08T22:55:26.850Z,61.70
2023-02-08T22:57:48.345Z,61.62
2023-02-08T23:00:10.605Z,61.12
2023-02-08T23:02:32.202Z,61.48
2023-02-08T23:04:53.783Z,60.98
2023-02-08T23:07:15.206Z,60.98
2023-02-08T23:09:36.680Z,61.76
2023-02-08T23:11:58.129Z,61.47
2023-02-08T23:14:19.690Z,61.52
2023-02-08T23:16:41.138Z,61.45
2023-02-08T23:19:03.084Z,61.41
2023-02-08T23:21:24.593Z,60.91
2023-02-08T23:23:47.871Z,61.33
2023-02-08T23:26:15.316Z,60.84
2023-02-08T23:28:37.327Z,60.68
2023-02-08T23:30:58.990Z,60.41
2023-02-08T23:33:20.521Z,59.96
2023-02-08T23:35:42.024Z,60.87
2023-02-08T23:38:03.525Z,60.34
2023-02-08T23:40:25.002Z,59.81
2023-02-08T23:42:46.684Z,59.96
2023-02-08T23:45:08.553Z,60.85
2023-02-08T23:47:30.995Z,61.76
2023-02-08T23:49:53.268Z,62.55
2023-02-08T23:52:15.020Z,62.99
2023-02-08T23:54:37.065Z,62.43
2023-02-08T23:56:58.588Z,62.96
2023-02-08T23:59:20.072Z,62.35
